Constitution — WDD4734 — position and weather

sailwx.info

Track history (hours):
 
Tides and Currents Weather Stations Pressure Air Temp Water Temp Dewpoint Dewpoint Depression Visibility Wind Speed Wind Dir Waves Ship Positions

Constitution

Owner: ConstitutionCharters, San Diego, CA. More information available from US FCC via Universal Licensing System and Coast Guard Vessel Documentation Center.

Last reported at 2017-Sep-24 06:30 UTC. Time now 2017-Sep-24 06:59 UTC.
Position N 32°43' W 117°14'.

Length 26 m.

Type: Passenger vessel. MMSI: 338299000.

Date/timePositionNaut miles runAvg speedWind from/ knotsBaromVisibWave heightAir tempDewpointWater temp
2017-Sep-24 06:30N 32°43' W 117°14'0 0.0
2017-Sep-24 06:01N 32°43' W 117°14'0 0.0
2017-Sep-24 05:30N 32°43' W 117°14'0 0.0
2017-Sep-24 05:00N 32°43' W 117°14'0 0.0
2017-Sep-24 04:30N 32°43' W 117°14'0 0.0
2017-Sep-24 04:01N 32°43' W 117°14'1 2.2
2017-Sep-24 03:29N 32°42' W 117°14'4 9.2
2017-Sep-24 03:01N 32°38' W 117°15'5 9.3
2017-Sep-24 02:31N 32°37' W 117°20'5 9.7
2017-Sep-24 02:00N 32°37' W 117°26'5 9.9
2017-Sep-24 01:30N 32°36' W 117°32'5 9.1
2017-Sep-24 01:01N 32°36' W 117°37'0 0.3
2017-Sep-24 00:30N 32°36' W 117°37'2 4.9
2017-Sep-24 00:01N 32°36' W 117°40'2 3.6
2017-Sep-23 23:30N 32°35' W 117°40'2 3.6
2017-Sep-23 23:00N 32°36' W 117°41'3 5.9
2017-Sep-23 22:30N 32°34' W 117°42'1 1.7
2017-Sep-23 22:00N 32°33' W 117°42'3 5.7
2017-Sep-23 21:30N 32°30' W 117°43'2 4.8
2017-Sep-23 21:00N 32°28' W 117°41'0 0.9
2017-Sep-23 20:30N 32°28' W 117°41'2 4.8
2017-Sep-23 20:01N 32°26' W 117°40'  
2017-Sep-21 06:28N 32°25' W 117°20'4 8.6
2017-Sep-21 05:58N 32°29' W 117°19'5 9.9
2017-Sep-21 05:30N 32°33' W 117°16'5 9.5
2017-Sep-21 05:01N 32°37' W 117°14'4 8.3
2017-Sep-21 04:30N 32°42' W 117°14'0 0.1
2017-Sep-21 04:00N 32°42' W 117°14'2 3.6
2017-Sep-21 03:30N 32°43' W 117°13'0 0.6
2017-Sep-21 03:00N 32°43' W 117°14'0 0.0
2017-Sep-21 02:31N 32°43' W 117°14'0 0.0
2017-Sep-21 02:00N 32°43' W 117°14'0 0.0
2017-Sep-21 01:31N 32°43' W 117°14'0 0.0
2017-Sep-21 01:00N 32°43' W 117°14'0 0.0
2017-Sep-21 00:31N 32°43' W 117°14'0 0.0
2017-Sep-21 00:00N 32°43' W 117°14'0 0.0
2017-Sep-20 23:30N 32°43' W 117°14'0 0.0
2017-Sep-20 23:00N 32°43' W 117°14'0 0.0
2017-Sep-20 22:30N 32°43' W 117°14'0 0.0
2017-Sep-20 22:01N 32°43' W 117°14'0 0.0
2017-Sep-20 21:30N 32°43' W 117°14'0 0.0
2017-Sep-20 21:01N 32°43' W 117°14'0 0.0
2017-Sep-20 20:31N 32°43' W 117°14'0 0.0
2017-Sep-20 20:00N 32°43' W 117°14'0 0.0
2017-Sep-20 19:30N 32°43' W 117°14'0 0.0
2017-Sep-20 19:00N 32°43' W 117°14'0 0.0
2017-Sep-20 18:30N 32°43' W 117°14'0 0.0
2017-Sep-20 18:00N 32°43' W 117°14'0 0.0
2017-Sep-20 17:30N 32°43' W 117°14'0 0.0
2017-Sep-20 17:01N 32°43' W 117°14'0 0.0
2017-Sep-20 16:30N 32°43' W 117°14'0 0.0
2017-Sep-20 16:00N 32°43' W 117°14'0 0.0
2017-Sep-20 15:30N 32°43' W 117°14'0 0.0
2017-Sep-20 15:00N 32°43' W 117°14'0 0.0
2017-Sep-20 14:00N 32°43' W 117°14'0 0.0
2017-Sep-20 13:30N 32°43' W 117°14'0 0.0
2017-Sep-20 13:00N 32°43' W 117°14'0 0.0
2017-Sep-20 12:30N 32°43' W 117°14'0 0.0
2017-Sep-20 12:01N 32°43' W 117°14'0 0.0
2017-Sep-20 11:30N 32°43' W 117°14'0 0.0
2017-Sep-20 11:01N 32°43' W 117°14'0 0.0
2017-Sep-20 10:31N 32°43' W 117°14'0 0.0
2017-Sep-20 10:01N 32°43' W 117°14'0 0.0
2017-Sep-20 09:30N 32°43' W 117°14'0 0.0
2017-Sep-20 09:01N 32°43' W 117°14'0 0.0
2017-Sep-20 08:30N 32°43' W 117°14'0 0.0
2017-Sep-20 08:00N 32°43' W 117°14'0 0.0
2017-Sep-20 07:31N 32°43' W 117°14'0 0.0
2017-Sep-20 07:01N 32°43' W 117°14'0 0.0
2017-Sep-20 06:30N 32°43' W 117°14'0 0.0
2017-Sep-20 06:00N 32°43' W 117°14'0 0.0
2017-Sep-20 05:30N 32°43' W 117°14'0 0.0
2017-Sep-20 05:01N 32°43' W 117°14'0 0.0
2017-Sep-20 04:31N 32°43' W 117°14'1 1.2
2017-Sep-20 04:00N 32°43' W 117°13'5 9.0
2017-Sep-20 03:30N 32°39' W 117°13'4 8.8
2017-Sep-20 03:00N 32°37' W 117°18'510.0
2017-Sep-20 02:30N 32°36' W 117°24'510.0
2017-Sep-20 02:00N 32°35' W 117°30'510.2
2017-Sep-20 01:31N 32°33' W 117°36'3 6.3
2017-Sep-20 01:01N 32°30' W 117°37'4 7.0
2017-Sep-20 00:28N 32°27' W 117°35'26 7.1
2017-Sep-19 20:47N 32°01' W 117°42'19 4.4
2017-Sep-19 16:23N 32°20' W 117°35'3 7.2
2017-Sep-19 16:01N 32°23' W 117°36'1 2.2
2017-Sep-19 15:30N 32°23' W 117°35'0 0.4
2017-Sep-19 15:01N 32°23' W 117°35'0 0.4
2017-Sep-19 14:25N 32°23' W 117°35'2 3.9
2017-Sep-19 14:00N 32°24' W 117°34'0 0.8
2017-Sep-19 13:31N 32°24' W 117°34'0 0.3
2017-Sep-19 13:00N 32°24' W 117°34'0 0.1
2017-Sep-19 12:29N 32°24' W 117°34'0 0.3
2017-Sep-19 12:00N 32°24' W 117°34'0 0.2
2017-Sep-19 11:30N 32°24' W 117°34'0 0.3
2017-Sep-19 10:50N 32°24' W 117°35'0 0.4
2017-Sep-19 10:27N 32°24' W 117°35'0 0.5
2017-Sep-19 10:00N 32°24' W 117°35'0 0.5
2017-Sep-19 09:27N 32°24' W 117°35'1 2.8
2017-Sep-19 08:57N 32°22' W 117°36'3 7.6
2017-Sep-19 08:30N 32°25' W 117°33'5 9.0
2017-Sep-19 08:00N 32°28' W 117°29'5 9.2
2017-Sep-19 07:31N 32°31' W 117°25'5 9.6
2017-Sep-19 07:00N 32°34' W 117°21'5 9.2
2017-Sep-19 06:26N 32°37' W 117°16'4 8.6
2017-Sep-19 06:00N 32°40' W 117°14'1 2.8
2017-Sep-19 05:30N 32°42' W 117°14'0 0.1
2017-Sep-19 05:00N 32°42' W 117°14'2 3.3
2017-Sep-19 04:30N 32°43' W 117°14'0 0.2
2017-Sep-19 04:01N 32°43' W 117°14'0 0.0
2017-Sep-19 03:31N 32°43' W 117°14'0 0.0
2017-Sep-19 03:00N 32°43' W 117°14'0 0.0
2017-Sep-19 02:30N 32°43' W 117°14'0 0.0
2017-Sep-19 02:00N 32°43' W 117°14'0 0.0
2017-Sep-19 01:29N 32°43' W 117°14'0 0.0
2017-Sep-19 01:00N 32°43' W 117°14'0 0.0
2017-Sep-19 00:27N 32°43' W 117°14'0 0.0
2017-Sep-18 23:56N 32°43' W 117°14'0 0.0
2017-Sep-18 23:30N 32°43' W 117°14'0 0.0
2017-Sep-18 22:59N 32°43' W 117°14'0 0.0
2017-Sep-18 22:30N 32°43' W 117°14'0 0.0
2017-Sep-18 21:55N 32°43' W 117°14'0 0.0
2017-Sep-18 21:28N 32°43' W 117°14'0 0.0
2017-Sep-18 21:00N 32°43' W 117°14'0 0.0
2017-Sep-18 20:30N 32°43' W 117°14'0 0.0
2017-Sep-18 20:01N 32°43' W 117°14'0 0.0
2017-Sep-18 19:29N 32°43' W 117°14'0 0.0
2017-Sep-18 19:00N 32°43' W 117°14'0 0.0
2017-Sep-18 18:31N 32°43' W 117°14'0 0.0
2017-Sep-18 18:00N 32°43' W 117°14'0 0.0
2017-Sep-18 17:30N 32°43' W 117°14'0 0.1
2017-Sep-18 16:00N 32°43' W 117°14'0 0.3
2017-Sep-18 15:30N 32°43' W 117°14'0 0.0
2017-Sep-18 15:00N 32°43' W 117°14'0 0.0
2017-Sep-18 14:30N 32°43' W 117°14'0 0.0
2017-Sep-18 14:00N 32°43' W 117°14'1 1.0
2017-Sep-18 13:28N 32°43' W 117°13'0 0.8
2017-Sep-18 12:52N 32°43' W 117°12'3 7.1
2017-Sep-18 12:30N 32°41' W 117°14'3 6.1
2017-Sep-18 12:01N 32°38' W 117°14'4 6.9
2017-Sep-18 11:30N 32°38' W 117°18'3 6.9
2017-Sep-18 11:00N 32°39' W 117°22'3 6.9
2017-Sep-18 10:31N 32°40' W 117°26'3 6.9
2017-Sep-18 10:00N 32°40' W 117°30'3 6.8
2017-Sep-18 09:31N 32°41' W 117°34'3 6.7
2017-Sep-18 09:01N 32°41' W 117°38'3 6.9
2017-Sep-18 08:30N 32°42' W 117°42'3 6.8
2017-Sep-18 08:01N 32°42' W 117°46'3 6.6
2017-Sep-18 07:30N 32°43' W 117°50'3 6.5
2017-Sep-18 07:00N 32°43' W 117°54'3 6.8
2017-Sep-18 06:30N 32°44' W 117°58'3 6.9
2017-Sep-18 06:01N 32°44' W 118°02'4 7.1
2017-Sep-18 05:26N 32°45' W 118°07'17 1.2
2017-Sep-17 15:22N 32°52' W 118°25'1 1.3
2017-Sep-17 14:57N 32°53' W 118°25'3 5.6
2017-Sep-17 14:29N 32°51' W 118°23'3 1.0
2017-Sep-17 11:55N 32°49' W 118°22'0 0.0
2017-Sep-17 10:57N 32°49' W 118°22'0 0.0
2017-Sep-17 05:10N 32°49' W 118°22'0 0.0
2017-Sep-17 04:56N 32°49' W 118°22'0 0.0
2017-Sep-17 00:19N 32°49' W 118°22'0 0.0
2017-Sep-16 23:51N 32°49' W 118°22'9 5.1
2017-Sep-16 22:03N 32°44' W 118°13'4 7.6
2017-Sep-16 21:28N 32°41' W 118°09'4 8.3
2017-Sep-16 20:56N 32°38' W 118°05'2 5.6
2017-Sep-16 20:31N 32°37' W 118°03'5 5.9
2017-Sep-16 19:42N 32°32' W 118°01'0 0.5
2017-Sep-16 19:27N 32°32' W 118°01'2 2.9
2017-Sep-16 18:48N 32°30' W 118°02'14 5.8
2017-Sep-16 16:29N 32°20' W 117°51'3 5.9
2017-Sep-16 15:59N 32°21' W 117°48'3 6.5
2017-Sep-16 15:30N 32°22' W 117°44'3 6.7
2017-Sep-16 15:00N 32°23' W 117°41'3 6.5
2017-Sep-16 14:30N 32°25' W 117°37'1 2.2
2017-Sep-16 14:00N 32°25' W 117°36'0 0.7
2017-Sep-16 13:30N 32°25' W 117°36'0 0.6
2017-Sep-16 13:00N 32°24' W 117°36'0 0.4
2017-Sep-16 12:31N 32°24' W 117°36'0 0.3
2017-Sep-16 12:00N 32°24' W 117°36'1 2.1
2017-Sep-16 11:31N 32°25' W 117°36'2 4.3
2017-Sep-16 11:00N 32°26' W 117°34'0 0.2
2017-Sep-16 10:30N 32°26' W 117°34'0 0.2
2017-Sep-16 09:59N 32°26' W 117°34'0 0.3
2017-Sep-16 09:30N 32°27' W 117°34'0 0.3
2017-Sep-16 09:01N 32°27' W 117°33'2 4.3
2017-Sep-16 08:30N 32°28' W 117°31'4 9.1
2017-Sep-16 08:00N 32°31' W 117°27'5 9.2
2017-Sep-16 07:30N 32°33' W 117°23'5 9.3
2017-Sep-16 07:00N 32°36' W 117°18'5 9.2
2017-Sep-16 06:30N 32°39' W 117°14'3 5.5
2017-Sep-16 06:01N 32°42' W 117°14'0 0.0
2017-Sep-16 05:31N 32°42' W 117°14'3 5.3
2017-Sep-16 05:00N 32°39' W 117°14'4 8.0
2017-Sep-16 04:30N 32°36' W 117°16'8 8.4
2017-Sep-16 03:30N 32°31' W 117°24'4 8.8
2017-Sep-16 03:00N 32°28' W 117°28'5 9.2
2017-Sep-16 02:24N 32°24' W 117°33'1 1.2
2017-Sep-16 01:19N 32°24' W 117°35'0 0.6
2017-Sep-16 00:58N 32°24' W 117°35'0 0.6
2017-Sep-16 00:25N 32°24' W 117°35'0 0.5
2017-Sep-15 23:37N 32°24' W 117°36'0 0.7
2017-Sep-15 23:28N 32°24' W 117°36'6 0.4
2017-Sep-15 08:45N 32°20' W 117°32'11 9.4
2017-Sep-15 07:37N 32°28' W 117°24'2 9.4
2017-Sep-15 07:25N 32°29' W 117°22'4 9.7
2017-Sep-15 07:00N 32°32' W 117°19'5 9.6
2017-Sep-15 06:31N 32°36' W 117°16'4 8.2
2017-Sep-15 06:00N 32°40' W 117°14'2 4.2
2017-Sep-15 05:31N 32°42' W 117°14'0 0.0
2017-Sep-15 05:01N 32°42' W 117°14'2 3.5
2017-Sep-15 04:30N 32°43' W 117°14'0 0.0
2017-Sep-15 04:01N 32°43' W 117°14'0 0.2
2017-Sep-15 03:31N 32°43' W 117°14'0 0.2
2017-Sep-15 03:00N 32°43' W 117°14'0 0.0
2017-Sep-15 02:29N 32°43' W 117°14'0 0.0
2017-Sep-15 01:59N 32°43' W 117°14'1 1.7
2017-Sep-15 01:30N 32°43' W 117°13'3 6.3
2017-Sep-15 01:00N 32°39' W 117°14'3 6.3
2017-Sep-15 00:30N 32°38' W 117°17'3 6.6
2017-Sep-15 00:00N 32°36' W 117°21'4 7.2
2017-Sep-14 23:31N 32°35' W 117°25'19 4.6
2017-Sep-14 19:26N 32°20' W 117°39'  
Track history (hours):
 
Tides and Currents Weather Stations Pressure Air Temp Water Temp Dewpoint Dewpoint Depression Visibility Wind Speed Wind Dir Waves Ship Positions

Constitution

Owner: ConstitutionCharters, San Diego, CA. More information available from US FCC via Universal Licensing System and Coast Guard Vessel Documentation Center.

Last reported at 2017-Sep-24 06:30 UTC. Time now 2017-Sep-24 06:59 UTC.
Position N 32°43' W 117°14'.

Length 26 m.

Type: Passenger vessel. MMSI: 338299000.

Date/timePositionNaut miles runAvg speedWind from/ knotsBaromVisibWave heightAir tempDewpointWater temp
2017-Sep-24 06:30N 32°43' W 117°14'0 0.0
2017-Sep-24 06:01N 32°43' W 117°14'0 0.0
2017-Sep-24 05:30N 32°43' W 117°14'0 0.0
2017-Sep-24 05:00N 32°43' W 117°14'0 0.0
2017-Sep-24 04:30N 32°43' W 117°14'0 0.0
2017-Sep-24 04:01N 32°43' W 117°14'1 2.2
2017-Sep-24 03:29N 32°42' W 117°14'4 9.2
2017-Sep-24 03:01N 32°38' W 117°15'5 9.3
2017-Sep-24 02:31N 32°37' W 117°20'5 9.7
2017-Sep-24 02:00N 32°37' W 117°26'5 9.9
2017-Sep-24 01:30N 32°36' W 117°32'5 9.1
2017-Sep-24 01:01N 32°36' W 117°37'0 0.3
2017-Sep-24 00:30N 32°36' W 117°37'2 4.9
2017-Sep-24 00:01N 32°36' W 117°40'2 3.6
2017-Sep-23 23:30N 32°35' W 117°40'2 3.6
2017-Sep-23 23:00N 32°36' W 117°41'3 5.9
2017-Sep-23 22:30N 32°34' W 117°42'1 1.7
2017-Sep-23 22:00N 32°33' W 117°42'3 5.7
2017-Sep-23 21:30N 32°30' W 117°43'2 4.8
2017-Sep-23 21:00N 32°28' W 117°41'0 0.9
2017-Sep-23 20:30N 32°28' W 117°41'2 4.8
2017-Sep-23 20:01N 32°26' W 117°40'  
2017-Sep-21 06:28N 32°25' W 117°20'4 8.6
2017-Sep-21 05:58N 32°29' W 117°19'5 9.9
2017-Sep-21 05:30N 32°33' W 117°16'5 9.5
2017-Sep-21 05:01N 32°37' W 117°14'4 8.3
2017-Sep-21 04:30N 32°42' W 117°14'0 0.1
2017-Sep-21 04:00N 32°42' W 117°14'2 3.6
2017-Sep-21 03:30N 32°43' W 117°13'0 0.6
2017-Sep-21 03:00N 32°43' W 117°14'0 0.0
2017-Sep-21 02:31N 32°43' W 117°14'0 0.0
2017-Sep-21 02:00N 32°43' W 117°14'0 0.0
2017-Sep-21 01:31N 32°43' W 117°14'0 0.0
2017-Sep-21 01:00N 32°43' W 117°14'0 0.0
2017-Sep-21 00:31N 32°43' W 117°14'0 0.0
2017-Sep-21 00:00N 32°43' W 117°14'0 0.0
2017-Sep-20 23:30N 32°43' W 117°14'0 0.0
2017-Sep-20 23:00N 32°43' W 117°14'0 0.0
2017-Sep-20 22:30N 32°43' W 117°14'0 0.0
2017-Sep-20 22:01N 32°43' W 117°14'0 0.0
2017-Sep-20 21:30N 32°43' W 117°14'0 0.0
2017-Sep-20 21:01N 32°43' W 117°14'0 0.0
2017-Sep-20 20:31N 32°43' W 117°14'0 0.0
2017-Sep-20 20:00N 32°43' W 117°14'0 0.0
2017-Sep-20 19:30N 32°43' W 117°14'0 0.0
2017-Sep-20 19:00N 32°43' W 117°14'0 0.0
2017-Sep-20 18:30N 32°43' W 117°14'0 0.0
2017-Sep-20 18:00N 32°43' W 117°14'0 0.0
2017-Sep-20 17:30N 32°43' W 117°14'0 0.0
2017-Sep-20 17:01N 32°43' W 117°14'0 0.0
2017-Sep-20 16:30N 32°43' W 117°14'0 0.0
2017-Sep-20 16:00N 32°43' W 117°14'0 0.0
2017-Sep-20 15:30N 32°43' W 117°14'0 0.0
2017-Sep-20 15:00N 32°43' W 117°14'0 0.0
2017-Sep-20 14:00N 32°43' W 117°14'0 0.0
2017-Sep-20 13:30N 32°43' W 117°14'0 0.0
2017-Sep-20 13:00N 32°43' W 117°14'0 0.0
2017-Sep-20 12:30N 32°43' W 117°14'0 0.0
2017-Sep-20 12:01N 32°43' W 117°14'0 0.0
2017-Sep-20 11:30N 32°43' W 117°14'0 0.0
2017-Sep-20 11:01N 32°43' W 117°14'0 0.0
2017-Sep-20 10:31N 32°43' W 117°14'0 0.0
2017-Sep-20 10:01N 32°43' W 117°14'0 0.0
2017-Sep-20 09:30N 32°43' W 117°14'0 0.0
2017-Sep-20 09:01N 32°43' W 117°14'0 0.0
2017-Sep-20 08:30N 32°43' W 117°14'0 0.0
2017-Sep-20 08:00N 32°43' W 117°14'0 0.0
2017-Sep-20 07:31N 32°43' W 117°14'0 0.0
2017-Sep-20 07:01N 32°43' W 117°14'0 0.0
2017-Sep-20 06:30N 32°43' W 117°14'0 0.0
2017-Sep-20 06:00N 32°43' W 117°14'0 0.0
2017-Sep-20 05:30N 32°43' W 117°14'0 0.0
2017-Sep-20 05:01N 32°43' W 117°14'0 0.0
2017-Sep-20 04:31N 32°43' W 117°14'1 1.2
2017-Sep-20 04:00N 32°43' W 117°13'5 9.0
2017-Sep-20 03:30N 32°39' W 117°13'4 8.8
2017-Sep-20 03:00N 32°37' W 117°18'510.0
2017-Sep-20 02:30N 32°36' W 117°24'510.0
2017-Sep-20 02:00N 32°35' W 117°30'510.2
2017-Sep-20 01:31N 32°33' W 117°36'3 6.3
2017-Sep-20 01:01N 32°30' W 117°37'4 7.0
2017-Sep-20 00:28N 32°27' W 117°35'26 7.1
2017-Sep-19 20:47N 32°01' W 117°42'19 4.4
2017-Sep-19 16:23N 32°20' W 117°35'3 7.2
2017-Sep-19 16:01N 32°23' W 117°36'1 2.2
2017-Sep-19 15:30N 32°23' W 117°35'0 0.4
2017-Sep-19 15:01N 32°23' W 117°35'0 0.4
2017-Sep-19 14:25N 32°23' W 117°35'2 3.9
2017-Sep-19 14:00N 32°24' W 117°34'0 0.8
2017-Sep-19 13:31N 32°24' W 117°34'0 0.3
2017-Sep-19 13:00N 32°24' W 117°34'0 0.1
2017-Sep-19 12:29N 32°24' W 117°34'0 0.3
2017-Sep-19 12:00N 32°24' W 117°34'0 0.2
2017-Sep-19 11:30N 32°24' W 117°34'0 0.3
2017-Sep-19 10:50N 32°24' W 117°35'0 0.4
2017-Sep-19 10:27N 32°24' W 117°35'0 0.5
2017-Sep-19 10:00N 32°24' W 117°35'0 0.5
2017-Sep-19 09:27N 32°24' W 117°35'1 2.8
2017-Sep-19 08:57N 32°22' W 117°36'3 7.6
2017-Sep-19 08:30N 32°25' W 117°33'5 9.0
2017-Sep-19 08:00N 32°28' W 117°29'5 9.2
2017-Sep-19 07:31N 32°31' W 117°25'5 9.6
2017-Sep-19 07:00N 32°34' W 117°21'5 9.2
2017-Sep-19 06:26N 32°37' W 117°16'4 8.6
2017-Sep-19 06:00N 32°40' W 117°14'1 2.8
2017-Sep-19 05:30N 32°42' W 117°14'0 0.1
2017-Sep-19 05:00N 32°42' W 117°14'2 3.3
2017-Sep-19 04:30N 32°43' W 117°14'0 0.2
2017-Sep-19 04:01N 32°43' W 117°14'0 0.0
2017-Sep-19 03:31N 32°43' W 117°14'0 0.0
2017-Sep-19 03:00N 32°43' W 117°14'0 0.0
2017-Sep-19 02:30N 32°43' W 117°14'0 0.0
2017-Sep-19 02:00N 32°43' W 117°14'0 0.0
2017-Sep-19 01:29N 32°43' W 117°14'0 0.0
2017-Sep-19 01:00N 32°43' W 117°14'0 0.0
2017-Sep-19 00:27N 32°43' W 117°14'0 0.0
2017-Sep-18 23:56N 32°43' W 117°14'0 0.0
2017-Sep-18 23:30N 32°43' W 117°14'0 0.0
2017-Sep-18 22:59N 32°43' W 117°14'0 0.0
2017-Sep-18 22:30N 32°43' W 117°14'0 0.0
2017-Sep-18 21:55N 32°43' W 117°14'0 0.0
2017-Sep-18 21:28N 32°43' W 117°14'0 0.0
2017-Sep-18 21:00N 32°43' W 117°14'0 0.0
2017-Sep-18 20:30N 32°43' W 117°14'0 0.0
2017-Sep-18 20:01N 32°43' W 117°14'0 0.0
2017-Sep-18 19:29N 32°43' W 117°14'0 0.0
2017-Sep-18 19:00N 32°43' W 117°14'0 0.0
2017-Sep-18 18:31N 32°43' W 117°14'0 0.0
2017-Sep-18 18:00N 32°43' W 117°14'0 0.0
2017-Sep-18 17:30N 32°43' W 117°14'0 0.1
2017-Sep-18 16:00N 32°43' W 117°14'0 0.3
2017-Sep-18 15:30N 32°43' W 117°14'0 0.0
2017-Sep-18 15:00N 32°43' W 117°14'0 0.0
2017-Sep-18 14:30N 32°43' W 117°14'0 0.0
2017-Sep-18 14:00N 32°43' W 117°14'1 1.0
2017-Sep-18 13:28N 32°43' W 117°13'0 0.8
2017-Sep-18 12:52N 32°43' W 117°12'3 7.1
2017-Sep-18 12:30N 32°41' W 117°14'3 6.1
2017-Sep-18 12:01N 32°38' W 117°14'4 6.9
2017-Sep-18 11:30N 32°38' W 117°18'3 6.9
2017-Sep-18 11:00N 32°39' W 117°22'3 6.9
2017-Sep-18 10:31N 32°40' W 117°26'3 6.9
2017-Sep-18 10:00N 32°40' W 117°30'3 6.8
2017-Sep-18 09:31N 32°41' W 117°34'3 6.7
2017-Sep-18 09:01N 32°41' W 117°38'3 6.9
2017-Sep-18 08:30N 32°42' W 117°42'3 6.8
2017-Sep-18 08:01N 32°42' W 117°46'3 6.6
2017-Sep-18 07:30N 32°43' W 117°50'3 6.5
2017-Sep-18 07:00N 32°43' W 117°54'3 6.8
2017-Sep-18 06:30N 32°44' W 117°58'3 6.9
2017-Sep-18 06:01N 32°44' W 118°02'4 7.1
2017-Sep-18 05:26N 32°45' W 118°07'17 1.2
2017-Sep-17 15:22N 32°52' W 118°25'1 1.3
2017-Sep-17 14:57N 32°53' W 118°25'3 5.6
2017-Sep-17 14:29N 32°51' W 118°23'3 1.0
2017-Sep-17 11:55N 32°49' W 118°22'0 0.0
2017-Sep-17 10:57N 32°49' W 118°22'0 0.0
2017-Sep-17 05:10N 32°49' W 118°22'0 0.0
2017-Sep-17 04:56N 32°49' W 118°22'0 0.0
2017-Sep-17 00:19N 32°49' W 118°22'0 0.0
2017-Sep-16 23:51N 32°49' W 118°22'9 5.1
2017-Sep-16 22:03N 32°44' W 118°13'4 7.6
2017-Sep-16 21:28N 32°41' W 118°09'4 8.3
2017-Sep-16 20:56N 32°38' W 118°05'2 5.6
2017-Sep-16 20:31N 32°37' W 118°03'5 5.9
2017-Sep-16 19:42N 32°32' W 118°01'0 0.5
2017-Sep-16 19:27N 32°32' W 118°01'2 2.9
2017-Sep-16 18:48N 32°30' W 118°02'14 5.8
2017-Sep-16 16:29N 32°20' W 117°51'3 5.9
2017-Sep-16 15:59N 32°21' W 117°48'3 6.5
2017-Sep-16 15:30N 32°22' W 117°44'3 6.7
2017-Sep-16 15:00N 32°23' W 117°41'3 6.5
2017-Sep-16 14:30N 32°25' W 117°37'1 2.2
2017-Sep-16 14:00N 32°25' W 117°36'0 0.7
2017-Sep-16 13:30N 32°25' W 117°36'0 0.6
2017-Sep-16 13:00N 32°24' W 117°36'0 0.4
2017-Sep-16 12:31N 32°24' W 117°36'0 0.3
2017-Sep-16 12:00N 32°24' W 117°36'1 2.1
2017-Sep-16 11:31N 32°25' W 117°36'2 4.3
2017-Sep-16 11:00N 32°26' W 117°34'0 0.2
2017-Sep-16 10:30N 32°26' W 117°34'0 0.2
2017-Sep-16 09:59N 32°26' W 117°34'0 0.3
2017-Sep-16 09:30N 32°27' W 117°34'0 0.3
2017-Sep-16 09:01N 32°27' W 117°33'2 4.3
2017-Sep-16 08:30N 32°28' W 117°31'4 9.1
2017-Sep-16 08:00N 32°31' W 117°27'5 9.2
2017-Sep-16 07:30N 32°33' W 117°23'5 9.3
2017-Sep-16 07:00N 32°36' W 117°18'5 9.2
2017-Sep-16 06:30N 32°39' W 117°14'3 5.5
2017-Sep-16 06:01N 32°42' W 117°14'0 0.0
2017-Sep-16 05:31N 32°42' W 117°14'3 5.3
2017-Sep-16 05:00N 32°39' W 117°14'4 8.0
2017-Sep-16 04:30N 32°36' W 117°16'8 8.4
2017-Sep-16 03:30N 32°31' W 117°24'4 8.8
2017-Sep-16 03:00N 32°28' W 117°28'5 9.2
2017-Sep-16 02:24N 32°24' W 117°33'1 1.2
2017-Sep-16 01:19N 32°24' W 117°35'0 0.6
2017-Sep-16 00:58N 32°24' W 117°35'0 0.6
2017-Sep-16 00:25N 32°24' W 117°35'0 0.5
2017-Sep-15 23:37N 32°24' W 117°36'0 0.7
2017-Sep-15 23:28N 32°24' W 117°36'6 0.4
2017-Sep-15 08:45N 32°20' W 117°32'11 9.4
2017-Sep-15 07:37N 32°28' W 117°24'2 9.4
2017-Sep-15 07:25N 32°29' W 117°22'4 9.7
2017-Sep-15 07:00N 32°32' W 117°19'5 9.6
2017-Sep-15 06:31N 32°36' W 117°16'4 8.2
2017-Sep-15 06:00N 32°40' W 117°14'2 4.2
2017-Sep-15 05:31N 32°42' W 117°14'0 0.0
2017-Sep-15 05:01N 32°42' W 117°14'2 3.5
2017-Sep-15 04:30N 32°43' W 117°14'0 0.0
2017-Sep-15 04:01N 32°43' W 117°14'0 0.2
2017-Sep-15 03:31N 32°43' W 117°14'0 0.2
2017-Sep-15 03:00N 32°43' W 117°14'0 0.0
2017-Sep-15 02:29N 32°43' W 117°14'0 0.0
2017-Sep-15 01:59N 32°43' W 117°14'1 1.7
2017-Sep-15 01:30N 32°43' W 117°13'3 6.3
2017-Sep-15 01:00N 32°39' W 117°14'3 6.3
2017-Sep-15 00:30N 32°38' W 117°17'3 6.6
2017-Sep-15 00:00N 32°36' W 117°21'4 7.2
2017-Sep-14 23:31N 32°35' W 117°25'19 4.6
2017-Sep-14 19:26N 32°20' W 117°39'  

Dump ship's entire track history